Time;durP1;ratioP1;P1;durP2;ratioP2;P2;SDS_P1;SDS_P2;PMS_P1;PMS_P2;Temp;Humidity;BMP_temperature;BMP_pressure;BME280_temperature;BME280_humidity;BME280_pressure;Samples;Min_cycle;Max_cycle;Signal;HPM_P1;HPM_P2
2021/09/06 12:37:24;;;;;;;;;;;;;;;;;;2787779;51;50803;-48
2021/09/06 12:39:49;;;;;;;;;;;;;;;;;;2782468;51;9595;-47
2021/09/06 12:42:14;;;;;;;;;;;;;;;;;;2773821;51;11490;-53
2021/09/06 12:44:39;;;;;;;;;;;;;;;;;;2777626;51;7576;-49
2021/09/06 12:47:05;;;;;;;;;;;;;;;;;;2778100;51;7584;-53
2021/09/06 12:51:33;;;;;;;;;349.67;309.67;;;;;;;;2787657;50;49619;-51
2021/09/06 12:53:58;;;;;;;;;369.67;317.67;;;;;;;;2787560;51;9694;-46
2021/09/06 12:56:23;;;;;;;;;367.75;320.50;;;;;;;;2788576;51;8775;-48
2021/09/06 12:58:50;;;;;;;;;348.33;310.67;;;;;;;;2782624;51;8803;-48
2021/09/06 13:02:49;;;;;;;;;325.00;296.00;;;;;;;;2772277;51;13655;-47
2021/09/06 13:05:14;;;;;;;;;352.33;312.33;;;;;;;;2785091;51;9652;-50
2021/09/06 13:07:39;;;;;;;;;1351.20;963.80;;;;;;;;2781502;51;8797;-46
2021/09/06 13:10:05;;;;;;;;;423.25;380.75;;;;;;;;2780312;51;8790;-48
2021/09/06 13:12:30;;;;;;;;;413.00;357.50;;;;;;;;2780342;51;8823;-47
2021/09/06 13:14:55;;;;;;;;;446.67;385.67;;;;;;;;2781792;51;49725;-50
2021/09/06 13:17:45;;;;;;;;;420.75;362.00;;;;;;;;2787227;50;13538;-54
2021/09/06 13:20:11;;;;;;;;;390.75;342.75;;;;;;;;2785786;51;8791;-54
2021/09/06 13:22:39;;;;;;;;;414.50;363.00;;;;;;;;2785653;51;9437;-52
2021/09/06 13:25:06;;;;;;;;;409.75;354.00;;;;;;;;2785279;51;9407;-52
2021/09/06 13:27:31;;;;;;;;;372.50;323.75;;;;;;;;2785988;51;8824;-52
2021/09/06 13:29:56;;;;;;;;;356.67;326.33;;;;;;;;2785635;51;8822;-52
2021/09/06 13:32:22;;;;;;;;;377.00;323.50;;;;;;;;2785813;51;8819;-52
2021/09/06 13:34:48;;;;;;;;;392.00;337.00;;;;;;;;2785300;51;8815;-51
2021/09/06 13:37:13;;;;;;;;;416.20;363.20;;;;;;;;2785678;51;11639;-51
2021/09/06 13:39:38;;;;;;;;;440.00;385.50;;;;;;;;2786049;51;8774;-52
2021/09/06 13:42:04;;;;;;;;;462.00;411.67;;;;;;;;2785994;51;8833;-52
2021/09/06 13:44:29;;;;;;;;;463.67;406.00;;;;;;;;2786076;51;8782;-52
2021/09/06 13:46:54;;;;;;;;;426.25;374.50;;;;;;;;2786098;51;8812;-53
2021/09/06 13:49:20;;;;;;;;;412.33;359.33;;;;;;;;2785984;51;8770;-51
2021/09/06 13:51:46;;;;;;;;;431.00;380.67;;;;;;;;2786002;51;8787;-52
2021/09/06 13:54:11;;;;;;;;;416.25;364.00;;;;;;;;2786068;51;8884;-51
2021/09/06 13:56:37;;;;;;;;;392.00;347.00;;;;;;;;2785609;51;11008;-52
2021/09/06 13:59:03;;;;;;;;;405.25;357.75;;;;;;;;2786145;51;9271;-52
2021/09/06 14:01:28;;;;;;;;;393.20;342.20;;;;;;;;2785608;51;11626;-52
2021/09/06 14:03:53;;;;;;;;;384.00;333.25;;;;;;;;2786116;51;8782;-52
2021/09/06 14:06:19;;;;;;;;;386.33;335.33;;;;;;;;2785727;51;8827;-52
2021/09/06 14:08:44;;;;;;;;;380.00;330.33;;;;;;;;2786103;51;8867;-52
2021/09/06 14:11:09;;;;;;;;;370.75;330.50;;;;;;;;2785913;51;8890;-52
2021/09/06 14:13:35;;;;;;;;;369.50;321.50;;;;;;;;2785079;51;9372;-52
2021/09/06 14:16:00;;;;;;;;;336.33;311.67;;;;;;;;2785736;51;8816;-52
2021/09/06 14:18:26;;;;;;;;;341.67;299.00;;;;;;;;2785957;51;8878;-52
2021/09/06 14:20:51;;;;;;;;;347.33;302.67;;;;;;;;2786014;51;8760;-52
2021/09/06 14:23:16;;;;;;;;;313.67;279.67;;;;;;;;2784983;51;8879;-52
2021/09/06 14:25:43;;;;;;;;;317.00;284.00;;;;;;;;2785965;51;8806;-52
2021/09/06 14:28:08;;;;;;;;;321.50;284.25;;;;;;;;2782965;51;8802;-52
2021/09/06 14:30:34;;;;;;;;;315.00;279.00;;;;;;;;2781890;51;11616;-52
2021/09/06 14:33:00;;;;;;;;;323.00;287.67;;;;;;;;2781252;51;8812;-52
2021/09/06 14:35:26;;;;;;;;;320.75;282.25;;;;;;;;2781581;51;8799;-52
2021/09/06 14:37:51;;;;;;;;;305.75;265.75;;;;;;;;2781822;51;11571;-52
2021/09/06 14:40:16;;;;;;;;;323.50;291.25;;;;;;;;2781795;51;8781;-50
2021/09/06 14:42:41;;;;;;;;;294.50;260.50;;;;;;;;2781195;51;8780;-50
2021/09/06 14:58:36;;;;;;;;;367.75;328.00;;;;;;;;2797960;50;52884;-51
2021/09/06 15:28:30;;;;;;;;;508.80;426.40;;;;;;;;2803137;50;13604;-50
2021/09/06 15:31:12;;;;;;;;;498.25;433.00;;;;;;;;2798646;51;8797;-52
2021/09/06 15:35:48;;;;;;;;;171.00;152.00;;;;;;;;2786807;50;13630;-58
2021/09/06 15:38:13;;;;;;;;;176.00;158.67;;;;;;;;2771864;51;11624;-59
2021/09/06 15:40:39;;;;;;;;;564.50;471.75;;;;;;;;2773710;51;10253;-55
2021/09/06 15:43:05;;;;;;;;;838.67;691.83;;;;;;;;2773998;51;10901;-57
2021/09/06 15:45:30;;;;;;;;;260.50;238.50;;;;;;;;2773545;51;9854;-56
2021/09/06 15:47:55;;;;;;;;;237.50;221.00;;;;;;;;2774203;51;10124;-57
2021/09/06 15:50:21;;;;;;;;;207.33;187.33;;;;;;;;2771003;51;11324;-57
2021/09/06 15:52:47;;;;;;;;;241.33;208.00;;;;;;;;2774305;51;10013;-62
2021/09/06 15:55:13;;;;;;;;;166.25;148.75;;;;;;;;2773527;51;10114;-57
2021/09/06 15:57:38;;;;;;;;;140.00;123.50;;;;;;;;2773639;51;10288;-55
2021/09/06 16:00:04;;;;;;;;;75.00;63.33;;;;;;;;2773002;51;9846;-56
2021/09/06 16:02:29;;;;;;;;;67.67;53.33;;;;;;;;2771475;51;8795;-56
2021/09/06 16:04:54;;;;;;;;;85.75;75.00;;;;;;;;2772612;51;8806;-56
2021/09/06 16:07:20;;;;;;;;;100.00;87.75;;;;;;;;2772348;51;8783;-56
2021/09/06 16:09:45;;;;;;;;;91.00;83.75;;;;;;;;2773089;51;10166;-57
2021/09/06 16:12:11;;;;;;;;;85.50;75.75;;;;;;;;2778264;51;8785;-56
2021/09/06 16:14:37;;;;;;;;;47.25;38.75;;;;;;;;2778105;51;8823;-55
2021/09/06 16:17:02;;;;;;;;;58.67;45.33;;;;;;;;2777583;51;9899;-57
2021/09/06 16:19:27;;;;;;;;;60.00;48.33;;;;;;;;2778291;51;8779;-55
2021/09/06 16:21:52;;;;;;;;;50.33;41.33;;;;;;;;2778253;51;8761;-56
2021/09/06 16:24:18;;;;;;;;;56.67;45.67;;;;;;;;2777048;51;8891;-56
2021/09/06 16:26:43;;;;;;;;;52.67;40.67;;;;;;;;2778080;51;8765;-55
2021/09/06 16:29:08;;;;;;;;;27.67;23.67;;;;;;;;2777298;51;11206;-56
2021/09/06 16:31:34;;;;;;;;;29.00;27.67;;;;;;;;2778174;51;8769;-56
2021/09/06 16:33:59;;;;;;;;;40.33;32.67;;;;;;;;2777208;51;10371;-56
2021/09/06 16:36:25;;;;;;;;;41.33;34.67;;;;;;;;2778207;51;8777;-56
2021/09/06 16:38:50;;;;;;;;;39.33;33.67;;;;;;;;2778105;51;9366;-55
2021/09/06 16:41:15;;;;;;;;;35.00;30.25;;;;;;;;2777541;51;10012;-57
2021/09/06 16:43:41;;;;;;;;;45.00;36.67;;;;;;;;2777166;51;8793;-56
2021/09/06 16:46:06;;;;;;;;;27.67;25.67;;;;;;;;2776011;51;8765;-56
2021/09/06 16:48:31;;;;;;;;;18.75;16.75;;;;;;;;2773676;51;9845;-55
2021/09/06 16:50:56;;;;;;;;;86.50;79.25;;;;;;;;2773153;51;10399;-56
2021/09/06 16:53:22;;;;;;;;;101.50;88.00;;;;;;;;2774106;51;8769;-55
2021/09/06 16:55:51;;;;;;;;;46.33;37.67;;;;;;;;2772809;51;9774;-58
2021/09/06 16:58:17;;;;;;;;;23.00;22.60;;;;;;;;2773662;51;9816;-57
2021/09/06 17:00:42;;;;;;;;;70.67;54.00;;;;;;;;2774141;51;8804;-55
2021/09/06 17:03:07;;;;;;;;;72.00;54.67;;;;;;;;2774068;51;8781;-53
2021/09/06 17:05:32;;;;;;;;;34.33;28.67;;;;;;;;2774112;51;8797;-54
2021/09/06 17:07:58;;;;;;;;;56.67;44.33;;;;;;;;2773859;51;8867;-54
2021/09/06 17:10:23;;;;;;;;;61.00;46.00;;;;;;;;2769581;51;54644;-53
2021/09/06 17:12:48;;;;;;;;;11.75;11.25;;;;;;;;2767373;51;10355;-54
2021/09/06 17:15:15;;;;;;;;;55.00;43.00;;;;;;;;2767730;51;11192;-54
2021/09/06 17:17:40;;;;;;;;;53.50;40.25;;;;;;;;2767963;51;8799;-56
2021/09/06 17:20:06;;;;;;;;;32.67;30.33;;;;;;;;2768128;51;8898;-57
2021/09/06 17:22:32;;;;;;;;;62.00;46.75;;;;;;;;2767912;51;8759;-56
2021/09/06 17:24:57;;;;;;;;;43.00;35.00;;;;;;;;2767893;51;8898;-56
2021/09/06 17:27:22;;;;;;;;;52.67;41.67;;;;;;;;2768032;51;8780;-56
2021/09/06 17:29:48;;;;;;;;;56.67;46.00;;;;;;;;2767955;51;8775;-56
2021/09/06 17:32:13;;;;;;;;;64.67;49.00;;;;;;;;2767315;51;10320;-57
2021/09/06 17:34:43;;;;;;;;;81.75;63.25;;;;;;;;2767796;51;8830;-55
2021/09/06 17:37:09;;;;;;;;;51.75;39.00;;;;;;;;2767516;51;8779;-55
2021/09/06 17:39:36;;;;;;;;;32.00;30.67;;;;;;;;2768186;51;8776;-55
2021/09/06 17:42:02;;;;;;;;;48.00;38.25;;;;;;;;2766872;51;10142;-55
2021/09/06 17:44:27;;;;;;;;;32.33;29.67;;;;;;;;2764820;51;10016;-56
2021/09/06 17:46:52;;;;;;;;;37.67;32.67;;;;;;;;2767116;51;10319;-64
2021/09/06 17:49:18;;;;;;;;;14.00;11.75;;;;;;;;2765521;51;10162;-57
2021/09/06 17:51:43;;;;;;;;;15.50;13.50;;;;;;;;2767516;51;9926;-55
2021/09/06 17:54:09;;;;;;;;;128.00;110.50;;;;;;;;2767694;51;9877;-56
2021/09/06 17:56:34;;;;;;;;;64.75;50.00;;;;;;;;2767734;51;8870;-56
